sensor_id;sensor_type;location;lat;lon;timestamp;temperature;humidity
7307;DHT22;3694;48.732;9.248;2023-04-25T00:02:00;6.50;99.90
7307;DHT22;3694;48.732;9.248;2023-04-25T00:04:26;6.50;99.90
7307;DHT22;3694;48.732;9.248;2023-04-25T00:06:53;6.50;99.90
7307;DHT22;3694;48.732;9.248;2023-04-25T00:09:19;6.50;99.90
7307;DHT22;3694;48.732;9.248;2023-04-25T00:11:45;6.40;99.90
7307;DHT22;3694;48.732;9.248;2023-04-25T00:14:10;6.40;99.90
7307;DHT22;3694;48.732;9.248;2023-04-25T00:16:36;6.40;99.90
7307;DHT22;3694;48.732;9.248;2023-04-25T00:19:02;6.40;99.90
7307;DHT22;3694;48.732;9.248;2023-04-25T00:21:28;6.40;99.90
7307;DHT22;3694;48.732;9.248;2023-04-25T00:23:55;6.30;99.90
7307;DHT22;3694;48.732;9.248;2023-04-25T00:26:21;6.30;99.90
7307;DHT22;3694;48.732;9.248;2023-04-25T00:28:47;6.30;99.90
7307;DHT22;3694;48.732;9.248;2023-04-25T00:31:13;6.40;99.90
7307;DHT22;3694;48.732;9.248;2023-04-25T00:33:38;6.30;99.90
7307;DHT22;3694;48.732;9.248;2023-04-25T00:36:05;6.30;99.90
7307;DHT22;3694;48.732;9.248;2023-04-25T00:38:30;6.30;99.90
7307;DHT22;3694;48.732;9.248;2023-04-25T00:40:56;6.30;99.90
7307;DHT22;3694;48.732;9.248;2023-04-25T00:43:26;6.30;99.90
7307;DHT22;3694;48.732;9.248;2023-04-25T00:45:52;6.20;99.90
7307;DHT22;3694;48.732;9.248;2023-04-25T00:48:18;6.50;99.90
7307;DHT22;3694;48.732;9.248;2023-04-25T00:50:54;6.60;99.90
7307;DHT22;3694;48.732;9.248;2023-04-25T00:53:20;6.60;99.90
7307;DHT22;3694;48.732;9.248;2023-04-25T00:55:47;6.70;99.90
7307;DHT22;3694;48.732;9.248;2023-04-25T00:58:12;6.70;99.90
7307;DHT22;3694;48.732;9.248;2023-04-25T01:00:39;6.60;99.90
7307;DHT22;3694;48.732;9.248;2023-04-25T01:03:06;6.60;99.90
7307;DHT22;3694;48.732;9.248;2023-04-25T01:05:31;6.70;99.90
7307;DHT22;3694;48.732;9.248;2023-04-25T01:07:57;6.70;99.90
7307;DHT22;3694;48.732;9.248;2023-04-25T01:10:22;6.70;99.90
7307;DHT22;3694;48.732;9.248;2023-04-25T01:12:48;6.70;99.90
7307;DHT22;3694;48.732;9.248;2023-04-25T01:15:14;6.70;99.90
7307;DHT22;3694;48.732;9.248;2023-04-25T01:17:40;6.70;99.90
7307;DHT22;3694;48.732;9.248;2023-04-25T01:20:06;6.70;99.90
7307;DHT22;3694;48.732;9.248;2023-04-25T01:22:33;6.70;99.90
7307;DHT22;3694;48.732;9.248;2023-04-25T01:24:59;6.70;99.90
7307;DHT22;3694;48.732;9.248;2023-04-25T01:27:25;6.70;99.90
7307;DHT22;3694;48.732;9.248;2023-04-25T01:29:51;6.70;99.90
7307;DHT22;3694;48.732;9.248;2023-04-25T01:32:17;6.70;99.90
7307;DHT22;3694;48.732;9.248;2023-04-25T01:34:43;6.90;99.90
7307;DHT22;3694;48.732;9.248;2023-04-25T01:37:09;6.60;99.90
7307;DHT22;3694;48.732;9.248;2023-04-25T01:39:34;6.60;99.90
7307;DHT22;3694;48.732;9.248;2023-04-25T01:42:00;6.60;99.90
7307;DHT22;3694;48.732;9.248;2023-04-25T01:44:26;6.60;99.90
7307;DHT22;3694;48.732;9.248;2023-04-25T01:46:52;6.60;99.90
7307;DHT22;3694;48.732;9.248;2023-04-25T01:49:17;6.70;99.90
7307;DHT22;3694;48.732;9.248;2023-04-25T01:51:43;6.70;99.90
7307;DHT22;3694;48.732;9.248;2023-04-25T01:54:10;6.70;99.90
7307;DHT22;3694;48.732;9.248;2023-04-25T01:56:37;6.70;99.90
7307;DHT22;3694;48.732;9.248;2023-04-25T01:59:04;6.70;99.90
7307;DHT22;3694;48.732;9.248;2023-04-25T02:01:29;6.60;99.90
7307;DHT22;3694;48.732;9.248;2023-04-25T02:03:55;6.60;99.90
7307;DHT22;3694;48.732;9.248;2023-04-25T02:06:23;6.60;99.90
7307;DHT22;3694;48.732;9.248;2023-04-25T02:08:49;6.50;99.90
7307;DHT22;3694;48.732;9.248;2023-04-25T02:11:14;6.50;99.90
7307;DHT22;3694;48.732;9.248;2023-04-25T02:13:40;6.50;99.90
7307;DHT22;3694;48.732;9.248;2023-04-25T02:16:05;6.40;99.90
7307;DHT22;3694;48.732;9.248;2023-04-25T02:18:31;6.40;99.90
7307;DHT22;3694;48.732;9.248;2023-04-25T02:20:59;6.30;99.90
7307;DHT22;3694;48.732;9.248;2023-04-25T02:23:24;6.20;99.90
7307;DHT22;3694;48.732;9.248;2023-04-25T02:25:50;6.20;99.90
7307;DHT22;3694;48.732;9.248;2023-04-25T02:28:17;6.10;99.90
7307;DHT22;3694;48.732;9.248;2023-04-25T02:30:42;6.10;99.90
7307;DHT22;3694;48.732;9.248;2023-04-25T02:33:08;6.10;99.90
7307;DHT22;3694;48.732;9.248;2023-04-25T02:35:33;6.10;99.90
7307;DHT22;3694;48.732;9.248;2023-04-25T02:37:59;6.10;99.90
7307;DHT22;3694;48.732;9.248;2023-04-25T02:40:24;6.00;99.90
7307;DHT22;3694;48.732;9.248;2023-04-25T02:42:50;6.00;99.90
7307;DHT22;3694;48.732;9.248;2023-04-25T02:45:15;6.00;99.90
7307;DHT22;3694;48.732;9.248;2023-04-25T02:47:41;5.90;99.90
7307;DHT22;3694;48.732;9.248;2023-04-25T02:50:07;5.90;99.90
7307;DHT22;3694;48.732;9.248;2023-04-25T02:52:33;6.00;99.90
7307;DHT22;3694;48.732;9.248;2023-04-25T02:54:58;5.90;99.90
7307;DHT22;3694;48.732;9.248;2023-04-25T02:57:24;6.00;99.90
7307;DHT22;3694;48.732;9.248;2023-04-25T02:59:49;6.00;99.90
7307;DHT22;3694;48.732;9.248;2023-04-25T03:02:15;6.00;99.90
7307;DHT22;3694;48.732;9.248;2023-04-25T03:04:40;6.10;99.90
7307;DHT22;3694;48.732;9.248;2023-04-25T03:07:06;6.00;99.90
7307;DHT22;3694;48.732;9.248;2023-04-25T03:09:32;6.00;99.90
7307;DHT22;3694;48.732;9.248;2023-04-25T03:11:57;6.00;99.90
7307;DHT22;3694;48.732;9.248;2023-04-25T03:14:23;6.00;99.90
7307;DHT22;3694;48.732;9.248;2023-04-25T03:16:48;6.00;99.90
7307;DHT22;3694;48.732;9.248;2023-04-25T03:19:14;5.90;99.90
7307;DHT22;3694;48.732;9.248;2023-04-25T03:21:42;6.00;99.90
7307;DHT22;3694;48.732;9.248;2023-04-25T03:24:08;5.90;99.90
7307;DHT22;3694;48.732;9.248;2023-04-25T03:26:34;6.00;99.90
7307;DHT22;3694;48.732;9.248;2023-04-25T03:28:59;5.80;99.90
7307;DHT22;3694;48.732;9.248;2023-04-25T03:31:25;5.80;99.90
7307;DHT22;3694;48.732;9.248;2023-04-25T03:33:51;5.80;99.90
7307;DHT22;3694;48.732;9.248;2023-04-25T03:36:16;5.80;99.90
7307;DHT22;3694;48.732;9.248;2023-04-25T03:38:42;5.80;99.90
7307;DHT22;3694;48.732;9.248;2023-04-25T03:41:08;5.80;99.90
7307;DHT22;3694;48.732;9.248;2023-04-25T03:43:33;5.70;99.90
7307;DHT22;3694;48.732;9.248;2023-04-25T03:45:59;5.70;99.90
7307;DHT22;3694;48.732;9.248;2023-04-25T03:48:26;5.70;99.90
7307;DHT22;3694;48.732;9.248;2023-04-25T03:50:52;5.60;99.90
7307;DHT22;3694;48.732;9.248;2023-04-25T03:53:17;5.60;99.90
7307;DHT22;3694;48.732;9.248;2023-04-25T03:55:43;5.50;99.90
7307;DHT22;3694;48.732;9.248;2023-04-25T03:58:08;5.50;99.90
7307;DHT22;3694;48.732;9.248;2023-04-25T04:00:35;5.50;99.90
7307;DHT22;3694;48.732;9.248;2023-04-25T04:03:00;5.50;99.90
7307;DHT22;3694;48.732;9.248;2023-04-25T04:05:26;5.50;99.90
7307;DHT22;3694;48.732;9.248;2023-04-25T04:07:53;5.70;99.90
7307;DHT22;3694;48.732;9.248;2023-04-25T04:10:18;5.60;99.90
7307;DHT22;3694;48.732;9.248;2023-04-25T04:12:44;5.50;99.90
7307;DHT22;3694;48.732;9.248;2023-04-25T04:15:10;5.50;99.90
7307;DHT22;3694;48.732;9.248;2023-04-25T04:17:36;5.50;99.90
7307;DHT22;3694;48.732;9.248;2023-04-25T04:20:01;5.40;99.90
7307;DHT22;3694;48.732;9.248;2023-04-25T04:22:28;5.40;99.90
7307;DHT22;3694;48.732;9.248;2023-04-25T04:24:54;5.40;99.90
7307;DHT22;3694;48.732;9.248;2023-04-25T04:27:21;5.40;99.90
7307;DHT22;3694;48.732;9.248;2023-04-25T04:29:47;5.50;99.90
7307;DHT22;3694;48.732;9.248;2023-04-25T04:32:13;5.50;99.90
7307;DHT22;3694;48.732;9.248;2023-04-25T04:34:39;5.50;99.90
7307;DHT22;3694;48.732;9.248;2023-04-25T04:37:05;5.60;99.90
7307;DHT22;3694;48.732;9.248;2023-04-25T04:39:32;5.60;99.90
7307;DHT22;3694;48.732;9.248;2023-04-25T04:41:58;5.80;99.90
7307;DHT22;3694;48.732;9.248;2023-04-25T04:44:25;5.90;99.90
7307;DHT22;3694;48.732;9.248;2023-04-25T04:46:51;6.00;99.90
7307;DHT22;3694;48.732;9.248;2023-04-25T04:49:17;6.00;99.90
7307;DHT22;3694;48.732;9.248;2023-04-25T04:51:42;6.10;99.90
7307;DHT22;3694;48.732;9.248;2023-04-25T04:54:09;6.20;99.90
7307;DHT22;3694;48.732;9.248;2023-04-25T04:56:35;6.30;99.90
7307;DHT22;3694;48.732;9.248;2023-04-25T04:59:00;6.40;99.90
7307;DHT22;3694;48.732;9.248;2023-04-25T05:01:28;6.60;99.90
7307;DHT22;3694;48.732;9.248;2023-04-25T05:03:55;6.70;99.90
7307;DHT22;3694;48.732;9.248;2023-04-25T05:06:26;6.70;99.90
7307;DHT22;3694;48.732;9.248;2023-04-25T05:08:52;6.80;99.90
7307;DHT22;3694;48.732;9.248;2023-04-25T05:11:18;6.80;99.90
7307;DHT22;3694;48.732;9.248;2023-04-25T05:13:44;6.80;99.90
7307;DHT22;3694;48.732;9.248;2023-04-25T05:16:11;6.80;99.90
7307;DHT22;3694;48.732;9.248;2023-04-25T05:18:36;7.00;99.90
7307;DHT22;3694;48.732;9.248;2023-04-25T05:21:02;6.70;99.90
7307;DHT22;3694;48.732;9.248;2023-04-25T05:23:27;6.80;99.90
7307;DHT22;3694;48.732;9.248;2023-04-25T05:25:54;6.90;99.90
7307;DHT22;3694;48.732;9.248;2023-04-25T05:28:20;6.90;99.90
7307;DHT22;3694;48.732;9.248;2023-04-25T05:30:46;7.00;99.90
7307;DHT22;3694;48.732;9.248;2023-04-25T05:33:11;7.10;99.90
7307;DHT22;3694;48.732;9.248;2023-04-25T05:35:37;7.10;99.90
7307;DHT22;3694;48.732;9.248;2023-04-25T05:38:02;7.20;99.90
7307;DHT22;3694;48.732;9.248;2023-04-25T05:40:28;7.20;99.90
7307;DHT22;3694;48.732;9.248;2023-04-25T05:42:53;7.30;99.90
7307;DHT22;3694;48.732;9.248;2023-04-25T05:45:19;7.30;99.90
7307;DHT22;3694;48.732;9.248;2023-04-25T05:47:44;7.40;99.90
7307;DHT22;3694;48.732;9.248;2023-04-25T05:50:13;7.50;99.90
7307;DHT22;3694;48.732;9.248;2023-04-25T05:52:39;7.80;99.90
7307;DHT22;3694;48.732;9.248;2023-04-25T05:55:05;8.10;99.90
7307;DHT22;3694;48.732;9.248;2023-04-25T05:57:31;8.40;99.90
7307;DHT22;3694;48.732;9.248;2023-04-25T05:59:56;8.70;99.90
7307;DHT22;3694;48.732;9.248;2023-04-25T06:02:22;9.00;99.90
7307;DHT22;3694;48.732;9.248;2023-04-25T06:04:50;9.30;99.90
7307;DHT22;3694;48.732;9.248;2023-04-25T06:07:16;9.20;99.80
7307;DHT22;3694;48.732;9.248;2023-04-25T06:09:41;9.20;99.50
7307;DHT22;3694;48.732;9.248;2023-04-25T06:12:07;9.00;99.60
7307;DHT22;3694;48.732;9.248;2023-04-25T06:14:33;8.90;99.60
7307;DHT22;3694;48.732;9.248;2023-04-25T06:16:59;8.80;99.80
7307;DHT22;3694;48.732;9.248;2023-04-25T06:19:25;8.60;99.80
7307;DHT22;3694;48.732;9.248;2023-04-25T06:21:50;8.50;99.90
7307;DHT22;3694;48.732;9.248;2023-04-25T06:24:16;8.30;99.40
7307;DHT22;3694;48.732;9.248;2023-04-25T06:26:41;8.20;99.40
7307;DHT22;3694;48.732;9.248;2023-04-25T06:29:07;8.10;99.50
7307;DHT22;3694;48.732;9.248;2023-04-25T06:31:32;8.10;99.70
7307;DHT22;3694;48.732;9.248;2023-04-25T06:33:59;8.20;99.90
7307;DHT22;3694;48.732;9.248;2023-04-25T06:36:24;8.20;99.90
7307;DHT22;3694;48.732;9.248;2023-04-25T06:38:51;8.20;99.90
7307;DHT22;3694;48.732;9.248;2023-04-25T06:41:17;8.10;99.90
7307;DHT22;3694;48.732;9.248;2023-04-25T06:43:43;8.10;99.90
7307;DHT22;3694;48.732;9.248;2023-04-25T06:46:08;8.00;99.90
7307;DHT22;3694;48.732;9.248;2023-04-25T06:48:34;8.00;99.90
7307;DHT22;3694;48.732;9.248;2023-04-25T06:51:00;8.00;99.90
7307;DHT22;3694;48.732;9.248;2023-04-25T06:53:25;7.90;99.90
7307;DHT22;3694;48.732;9.248;2023-04-25T06:55:51;7.80;99.90
7307;DHT22;3694;48.732;9.248;2023-04-25T06:58:17;7.90;99.90
7307;DHT22;3694;48.732;9.248;2023-04-25T07:00:42;7.90;99.90
7307;DHT22;3694;48.732;9.248;2023-04-25T07:03:08;7.90;99.90
7307;DHT22;3694;48.732;9.248;2023-04-25T07:05:33;8.00;99.90
7307;DHT22;3694;48.732;9.248;2023-04-25T07:07:59;7.80;99.90
7307;DHT22;3694;48.732;9.248;2023-04-25T07:10:25;7.70;99.90
7307;DHT22;3694;48.732;9.248;2023-04-25T07:12:51;7.70;99.90
7307;DHT22;3694;48.732;9.248;2023-04-25T07:15:16;7.70;99.90
7307;DHT22;3694;48.732;9.248;2023-04-25T07:17:42;7.70;99.90
7307;DHT22;3694;48.732;9.248;2023-04-25T07:20:08;7.60;99.90
7307;DHT22;3694;48.732;9.248;2023-04-25T07:22:35;7.70;99.90
7307;DHT22;3694;48.732;9.248;2023-04-25T07:25:00;7.70;99.90
7307;DHT22;3694;48.732;9.248;2023-04-25T07:27:26;7.60;99.90
7307;DHT22;3694;48.732;9.248;2023-04-25T07:29:52;7.60;99.90
7307;DHT22;3694;48.732;9.248;2023-04-25T07:32:18;7.60;99.90
7307;DHT22;3694;48.732;9.248;2023-04-25T07:34:43;7.40;99.90
7307;DHT22;3694;48.732;9.248;2023-04-25T07:37:09;7.50;99.90
7307;DHT22;3694;48.732;9.248;2023-04-25T07:39:35;7.40;99.90
7307;DHT22;3694;48.732;9.248;2023-04-25T07:42:00;7.50;99.90
7307;DHT22;3694;48.732;9.248;2023-04-25T07:44:27;7.60;99.90
7307;DHT22;3694;48.732;9.248;2023-04-25T07:46:53;7.60;99.90
7307;DHT22;3694;48.732;9.248;2023-04-25T07:49:18;7.60;99.90
7307;DHT22;3694;48.732;9.248;2023-04-25T07:51:44;7.70;99.90
7307;DHT22;3694;48.732;9.248;2023-04-25T07:54:14;7.60;99.90
7307;DHT22;3694;48.732;9.248;2023-04-25T07:56:40;7.40;99.90
7307;DHT22;3694;48.732;9.248;2023-04-25T07:59:05;7.40;99.90
7307;DHT22;3694;48.732;9.248;2023-04-25T08:01:31;7.40;99.90
7307;DHT22;3694;48.732;9.248;2023-04-25T08:03:57;7.30;99.90
7307;DHT22;3694;48.732;9.248;2023-04-25T08:06:22;7.30;99.90
7307;DHT22;3694;48.732;9.248;2023-04-25T08:08:48;7.30;99.90
7307;DHT22;3694;48.732;9.248;2023-04-25T08:11:13;7.40;99.90
7307;DHT22;3694;48.732;9.248;2023-04-25T08:13:39;7.30;99.90
7307;DHT22;3694;48.732;9.248;2023-04-25T08:16:04;7.30;99.90
7307;DHT22;3694;48.732;9.248;2023-04-25T08:18:30;7.40;99.90
7307;DHT22;3694;48.732;9.248;2023-04-25T08:20:56;7.40;99.90
7307;DHT22;3694;48.732;9.248;2023-04-25T08:23:21;7.40;99.90
7307;DHT22;3694;48.732;9.248;2023-04-25T08:25:47;7.50;99.90
7307;DHT22;3694;48.732;9.248;2023-04-25T08:28:12;7.40;99.90
7307;DHT22;3694;48.732;9.248;2023-04-25T08:30:38;7.30;99.90
7307;DHT22;3694;48.732;9.248;2023-04-25T08:33:03;7.30;99.90
7307;DHT22;3694;48.732;9.248;2023-04-25T08:35:33;7.20;99.90
7307;DHT22;3694;48.732;9.248;2023-04-25T08:37:58;7.30;99.90
7307;DHT22;3694;48.732;9.248;2023-04-25T08:40:27;7.40;99.90
7307;DHT22;3694;48.732;9.248;2023-04-25T08:42:57;7.40;99.90
7307;DHT22;3694;48.732;9.248;2023-04-25T08:45:22;7.40;99.90
7307;DHT22;3694;48.732;9.248;2023-04-25T08:47:51;7.40;99.90
7307;DHT22;3694;48.732;9.248;2023-04-25T08:50:18;7.30;99.90
7307;DHT22;3694;48.732;9.248;2023-04-25T08:52:47;7.40;99.90
7307;DHT22;3694;48.732;9.248;2023-04-25T08:55:14;7.50;99.90
7307;DHT22;3694;48.732;9.248;2023-04-25T08:57:42;7.60;99.90
7307;DHT22;3694;48.732;9.248;2023-04-25T09:00:11;7.80;99.90
7307;DHT22;3694;48.732;9.248;2023-04-25T09:02:42;7.90;99.90
7307;DHT22;3694;48.732;9.248;2023-04-25T09:05:09;7.80;99.90
7307;DHT22;3694;48.732;9.248;2023-04-25T09:07:35;7.80;99.90
7307;DHT22;3694;48.732;9.248;2023-04-25T09:10:00;7.80;99.90
7307;DHT22;3694;48.732;9.248;2023-04-25T09:12:29;7.80;99.90
7307;DHT22;3694;48.732;9.248;2023-04-25T09:15:10;7.80;99.90
7307;DHT22;3694;48.732;9.248;2023-04-25T09:17:36;7.80;99.90
7307;DHT22;3694;48.732;9.248;2023-04-25T09:20:10;7.80;99.90
7307;DHT22;3694;48.732;9.248;2023-04-25T09:22:37;7.80;99.90
7307;DHT22;3694;48.732;9.248;2023-04-25T09:25:13;7.70;99.90
7307;DHT22;3694;48.732;9.248;2023-04-25T09:27:51;7.60;99.90
7307;DHT22;3694;48.732;9.248;2023-04-25T09:30:17;7.50;99.90
7307;DHT22;3694;48.732;9.248;2023-04-25T09:32:43;7.50;99.90
7307;DHT22;3694;48.732;9.248;2023-04-25T09:35:26;7.40;99.90
7307;DHT22;3694;48.732;9.248;2023-04-25T09:37:56;7.20;99.90
7307;DHT22;3694;48.732;9.248;2023-04-25T09:40:22;7.30;99.90
7307;DHT22;3694;48.732;9.248;2023-04-25T09:42:48;7.30;99.90
7307;DHT22;3694;48.732;9.248;2023-04-25T09:45:13;7.40;99.90
7307;DHT22;3694;48.732;9.248;2023-04-25T09:47:40;7.40;99.90
7307;DHT22;3694;48.732;9.248;2023-04-25T09:50:14;7.50;99.90
7307;DHT22;3694;48.732;9.248;2023-04-25T09:52:41;7.60;99.90
7307;DHT22;3694;48.732;9.248;2023-04-25T09:55:14;7.50;99.90
7307;DHT22;3694;48.732;9.248;2023-04-25T09:57:48;7.60;99.90
7307;DHT22;3694;48.732;9.248;2023-04-25T10:00:18;7.70;99.90
7307;DHT22;3694;48.732;9.248;2023-04-25T10:02:46;7.60;99.90
7307;DHT22;3694;48.732;9.248;2023-04-25T10:05:18;7.60;99.90
7307;DHT22;3694;48.732;9.248;2023-04-25T10:07:50;7.50;99.90
7307;DHT22;3694;48.732;9.248;2023-04-25T10:10:19;7.30;99.90
7307;DHT22;3694;48.732;9.248;2023-04-25T10:12:51;7.20;99.90
7307;DHT22;3694;48.732;9.248;2023-04-25T10:15:17;7.00;99.90
7307;DHT22;3694;48.732;9.248;2023-04-25T10:17:43;6.90;99.90
7307;DHT22;3694;48.732;9.248;2023-04-25T10:20:09;6.80;99.90
7307;DHT22;3694;48.732;9.248;2023-04-25T10:22:39;6.90;99.90
7307;DHT22;3694;48.732;9.248;2023-04-25T10:25:07;6.90;99.90
7307;DHT22;3694;48.732;9.248;2023-04-25T10:27:34;6.90;99.90
7307;DHT22;3694;48.732;9.248;2023-04-25T10:30:07;6.90;99.90
7307;DHT22;3694;48.732;9.248;2023-04-25T10:32:35;6.90;99.90
7307;DHT22;3694;48.732;9.248;2023-04-25T10:35:18;6.90;99.90
7307;DHT22;3694;48.732;9.248;2023-04-25T10:38:04;6.80;99.90
7307;DHT22;3694;48.732;9.248;2023-04-25T10:40:31;6.80;99.90
7307;DHT22;3694;48.732;9.248;2023-04-25T10:46:25;6.90;99.90
7307;DHT22;3694;48.732;9.248;2023-04-25T10:48:53;7.10;99.90
7307;DHT22;3694;48.732;9.248;2023-04-25T10:51:24;7.10;99.90
7307;DHT22;3694;48.732;9.248;2023-04-25T10:53:58;7.00;99.90
7307;DHT22;3694;48.732;9.248;2023-04-25T10:56:26;7.10;99.90
7307;DHT22;3694;48.732;9.248;2023-04-25T10:59:04;6.90;99.90
7307;DHT22;3694;48.732;9.248;2023-04-25T11:01:39;7.00;99.90
7307;DHT22;3694;48.732;9.248;2023-04-25T11:04:05;7.10;99.90
7307;DHT22;3694;48.732;9.248;2023-04-25T11:09:03;7.20;99.90
7307;DHT22;3694;48.732;9.248;2023-04-25T11:11:36;7.20;99.90
7307;DHT22;3694;48.732;9.248;2023-04-25T11:14:02;7.20;99.90
7307;DHT22;3694;48.732;9.248;2023-04-25T11:16:28;7.00;99.90
7307;DHT22;3694;48.732;9.248;2023-04-25T11:18:56;6.60;99.90
7307;DHT22;3694;48.732;9.248;2023-04-25T11:21:22;6.40;99.90
7307;DHT22;3694;48.732;9.248;2023-04-25T11:23:47;6.40;99.90
7307;DHT22;3694;48.732;9.248;2023-04-25T11:26:15;6.50;99.90
7307;DHT22;3694;48.732;9.248;2023-04-25T11:28:52;6.70;99.90
7307;DHT22;3694;48.732;9.248;2023-04-25T11:31:22;6.80;99.90
7307;DHT22;3694;48.732;9.248;2023-04-25T11:33:47;6.80;99.90
7307;DHT22;3694;48.732;9.248;2023-04-25T11:36:13;7.10;99.90
7307;DHT22;3694;48.732;9.248;2023-04-25T11:38:38;7.10;99.90
7307;DHT22;3694;48.732;9.248;2023-04-25T11:41:04;7.60;99.90
7307;DHT22;3694;48.732;9.248;2023-04-25T11:43:29;7.20;99.90
7307;DHT22;3694;48.732;9.248;2023-04-25T11:45:55;7.40;99.90
7307;DHT22;3694;48.732;9.248;2023-04-25T11:48:21;7.20;99.90
7307;DHT22;3694;48.732;9.248;2023-04-25T11:50:46;7.40;99.90
7307;DHT22;3694;48.732;9.248;2023-04-25T11:53:12;7.60;99.90
7307;DHT22;3694;48.732;9.248;2023-04-25T11:55:38;7.70;99.90
7307;DHT22;3694;48.732;9.248;2023-04-25T11:58:04;7.90;99.90
7307;DHT22;3694;48.732;9.248;2023-04-25T12:00:30;8.00;99.90
7307;DHT22;3694;48.732;9.248;2023-04-25T12:02:57;8.00;99.90
7307;DHT22;3694;48.732;9.248;2023-04-25T12:05:29;8.00;99.90
7307;DHT22;3694;48.732;9.248;2023-04-25T12:07:56;8.30;99.90
7307;DHT22;3694;48.732;9.248;2023-04-25T12:10:21;8.50;99.90
7307;DHT22;3694;48.732;9.248;2023-04-25T12:12:49;8.30;99.90
7307;DHT22;3694;48.732;9.248;2023-04-25T12:15:23;8.20;99.90
7307;DHT22;3694;48.732;9.248;2023-04-25T12:17:51;8.20;99.90
7307;DHT22;3694;48.732;9.248;2023-04-25T12:20:18;8.20;99.90
7307;DHT22;3694;48.732;9.248;2023-04-25T12:22:46;8.30;99.90
7307;DHT22;3694;48.732;9.248;2023-04-25T12:25:34;8.30;99.90
7307;DHT22;3694;48.732;9.248;2023-04-25T12:28:11;8.50;99.90
7307;DHT22;3694;48.732;9.248;2023-04-25T12:30:59;8.50;99.90
7307;DHT22;3694;48.732;9.248;2023-04-25T12:33:30;8.60;99.90
7307;DHT22;3694;48.732;9.248;2023-04-25T12:35:57;8.50;99.90
7307;DHT22;3694;48.732;9.248;2023-04-25T12:38:30;8.40;99.90
7307;DHT22;3694;48.732;9.248;2023-04-25T12:40:59;8.30;99.90
7307;DHT22;3694;48.732;9.248;2023-04-25T12:43:37;8.30;99.90
7307;DHT22;3694;48.732;9.248;2023-04-25T12:46:03;8.50;99.90
7307;DHT22;3694;48.732;9.248;2023-04-25T12:48:28;8.40;99.90
7307;DHT22;3694;48.732;9.248;2023-04-25T12:50:54;8.50;99.90
7307;DHT22;3694;48.732;9.248;2023-04-25T12:53:21;8.60;99.90
7307;DHT22;3694;48.732;9.248;2023-04-25T12:55:48;8.70;99.90
7307;DHT22;3694;48.732;9.248;2023-04-25T12:58:15;8.80;99.90
7307;DHT22;3694;48.732;9.248;2023-04-25T13:00:40;9.10;99.90
7307;DHT22;3694;48.732;9.248;2023-04-25T13:03:06;9.50;99.90
7307;DHT22;3694;48.732;9.248;2023-04-25T13:05:31;9.90;99.90
7307;DHT22;3694;48.732;9.248;2023-04-25T13:07:57;10.10;99.90
7307;DHT22;3694;48.732;9.248;2023-04-25T13:10:23;10.50;99.40
7307;DHT22;3694;48.732;9.248;2023-04-25T13:12:48;10.80;99.50
7307;DHT22;3694;48.732;9.248;2023-04-25T13:15:14;11.40;99.30
7307;DHT22;3694;48.732;9.248;2023-04-25T13:17:41;11.70;98.30
7307;DHT22;3694;48.732;9.248;2023-04-25T13:20:07;12.00;98.20
7307;DHT22;3694;48.732;9.248;2023-04-25T13:22:34;12.40;98.40
7307;DHT22;3694;48.732;9.248;2023-04-25T13:25:02;12.50;97.10
7307;DHT22;3694;48.732;9.248;2023-04-25T13:27:28;12.40;97.20
7307;DHT22;3694;48.732;9.248;2023-04-25T13:29:54;12.30;96.50
7307;DHT22;3694;48.732;9.248;2023-04-25T13:32:20;12.10;96.50
7307;DHT22;3694;48.732;9.248;2023-04-25T13:34:45;11.90;96.10
7307;DHT22;3694;48.732;9.248;2023-04-25T13:37:11;12.00;96.40
7307;DHT22;3694;48.732;9.248;2023-04-25T13:39:36;12.20;96.80
7307;DHT22;3694;48.732;9.248;2023-04-25T13:42:02;12.20;96.60
7307;DHT22;3694;48.732;9.248;2023-04-25T13:44:27;12.40;96.40
7307;DHT22;3694;48.732;9.248;2023-04-25T13:46:53;11.90;95.50
7307;DHT22;3694;48.732;9.248;2023-04-25T13:49:18;11.80;95.80
7307;DHT22;3694;48.732;9.248;2023-04-25T13:51:44;11.70;97.10
7307;DHT22;3694;48.732;9.248;2023-04-25T13:54:10;11.70;96.90
7307;DHT22;3694;48.732;9.248;2023-04-25T13:56:35;11.70;96.70
7307;DHT22;3694;48.732;9.248;2023-04-25T13:59:01;11.80;96.70
7307;DHT22;3694;48.732;9.248;2023-04-25T14:01:26;11.70;95.90
7307;DHT22;3694;48.732;9.248;2023-04-25T14:03:53;11.70;96.50
7307;DHT22;3694;48.732;9.248;2023-04-25T14:06:19;11.40;96.20
7307;DHT22;3694;48.732;9.248;2023-04-25T14:08:49;11.20;96.60
7307;DHT22;3694;48.732;9.248;2023-04-25T14:11:14;11.30;97.00
7307;DHT22;3694;48.732;9.248;2023-04-25T14:13:40;11.00;96.90
7307;DHT22;3694;48.732;9.248;2023-04-25T14:16:05;10.90;96.70
7307;DHT22;3694;48.732;9.248;2023-04-25T14:18:31;11.20;97.20
7307;DHT22;3694;48.732;9.248;2023-04-25T14:20:57;11.20;97.20
7307;DHT22;3694;48.732;9.248;2023-04-25T14:23:22;11.30;96.50
7307;DHT22;3694;48.732;9.248;2023-04-25T14:25:51;11.30;97.80
7307;DHT22;3694;48.732;9.248;2023-04-25T14:28:24;11.80;97.30
7307;DHT22;3694;48.732;9.248;2023-04-25T14:30:50;11.80;96.10
7307;DHT22;3694;48.732;9.248;2023-04-25T14:33:16;12.10;96.00
7307;DHT22;3694;48.732;9.248;2023-04-25T14:35:41;11.80;96.10
7307;DHT22;3694;48.732;9.248;2023-04-25T14:38:07;11.80;95.90
7307;DHT22;3694;48.732;9.248;2023-04-25T14:40:33;11.20;96.10
7307;DHT22;3694;48.732;9.248;2023-04-25T14:42:58;11.80;96.80
7307;DHT22;3694;48.732;9.248;2023-04-25T14:45:26;11.70;96.20
7307;DHT22;3694;48.732;9.248;2023-04-25T14:47:52;11.30;96.10
7307;DHT22;3694;48.732;9.248;2023-04-25T14:50:18;11.20;96.20
7307;DHT22;3694;48.732;9.248;2023-04-25T14:52:44;11.20;96.40
7307;DHT22;3694;48.732;9.248;2023-04-25T14:55:10;11.10;96.70
7307;DHT22;3694;48.732;9.248;2023-04-25T14:57:45;11.20;96.60
7307;DHT22;3694;48.732;9.248;2023-04-25T15:00:14;11.10;96.00
7307;DHT22;3694;48.732;9.248;2023-04-25T15:02:41;11.00;96.20
7307;DHT22;3694;48.732;9.248;2023-04-25T15:05:07;11.00;96.50
7307;DHT22;3694;48.732;9.248;2023-04-25T15:07:35;10.70;96.00
7307;DHT22;3694;48.732;9.248;2023-04-25T15:10:03;10.70;96.70
7307;DHT22;3694;48.732;9.248;2023-04-25T15:12:28;10.70;96.50
7307;DHT22;3694;48.732;9.248;2023-04-25T15:14:54;10.90;96.60
7307;DHT22;3694;48.732;9.248;2023-04-25T15:17:20;11.10;95.80
7307;DHT22;3694;48.732;9.248;2023-04-25T15:19:45;11.30;95.30
7307;DHT22;3694;48.732;9.248;2023-04-25T15:22:11;11.50;95.40
7307;DHT22;3694;48.732;9.248;2023-04-25T15:24:36;11.80;95.40
7307;DHT22;3694;48.732;9.248;2023-04-25T15:27:02;11.90;95.00
7307;DHT22;3694;48.732;9.248;2023-04-25T15:29:28;12.20;95.20
7307;DHT22;3694;48.732;9.248;2023-04-25T15:31:54;12.40;95.20
7307;DHT22;3694;48.732;9.248;2023-04-25T15:34:19;12.40;94.70
7307;DHT22;3694;48.732;9.248;2023-04-25T15:36:45;12.00;94.90
7307;DHT22;3694;48.732;9.248;2023-04-25T15:39:11;11.60;94.30
7307;DHT22;3694;48.732;9.248;2023-04-25T15:41:36;11.50;95.10
7307;DHT22;3694;48.732;9.248;2023-04-25T15:44:04;11.10;95.60
7307;DHT22;3694;48.732;9.248;2023-04-25T15:46:32;10.90;95.70
7307;DHT22;3694;48.732;9.248;2023-04-25T15:48:58;10.40;96.70
7307;DHT22;3694;48.732;9.248;2023-04-25T15:51:23;10.00;96.90
7307;DHT22;3694;48.732;9.248;2023-04-25T15:53:49;9.80;97.10
7307;DHT22;3694;48.732;9.248;2023-04-25T15:56:15;9.70;97.40
7307;DHT22;3694;48.732;9.248;2023-04-25T15:58:40;9.70;97.10
7307;DHT22;3694;48.732;9.248;2023-04-25T16:01:07;9.60;97.20
7307;DHT22;3694;48.732;9.248;2023-04-25T16:03:33;9.60;97.60
7307;DHT22;3694;48.732;9.248;2023-04-25T16:05:58;9.60;97.40
7307;DHT22;3694;48.732;9.248;2023-04-25T16:08:24;9.60;97.60
7307;DHT22;3694;48.732;9.248;2023-04-25T16:10:53;9.60;97.60
7307;DHT22;3694;48.732;9.248;2023-04-25T16:13:22;9.50;97.00
7307;DHT22;3694;48.732;9.248;2023-04-25T16:15:48;9.50;96.90
7307;DHT22;3694;48.732;9.248;2023-04-25T16:18:13;9.50;97.10